sensor_id;sensor_type;location;lat;lon;timestamp;temperature;humidity
2729;DHT22;1372;47.956;7.830;2024-03-23T00:53:42;15.10;99.90
2729;DHT22;1372;47.956;7.830;2024-03-23T00:56:09;15.20;99.90
2729;DHT22;1372;47.956;7.830;2024-03-23T00:58:37;15.20;99.90
2729;DHT22;1372;47.956;7.830;2024-03-23T01:01:04;15.20;99.90
2729;DHT22;1372;47.956;7.830;2024-03-23T01:03:33;15.20;99.90
2729;DHT22;1372;47.956;7.830;2024-03-23T01:06:00;15.10;99.90
2729;DHT22;1372;47.956;7.830;2024-03-23T01:08:29;15.10;99.90
2729;DHT22;1372;47.956;7.830;2024-03-23T01:10:58;15.20;99.90
2729;DHT22;1372;47.956;7.830;2024-03-23T01:13:26;15.20;99.90
2729;DHT22;1372;47.956;7.830;2024-03-23T01:15:55;15.10;99.90
2729;DHT22;1372;47.956;7.830;2024-03-23T01:18:24;15.20;99.90
2729;DHT22;1372;47.956;7.830;2024-03-23T01:20:52;15.30;99.90
2729;DHT22;1372;47.956;7.830;2024-03-23T01:23:20;15.40;99.90
2729;DHT22;1372;47.956;7.830;2024-03-23T01:25:52;15.50;99.90
2729;DHT22;1372;47.956;7.830;2024-03-23T01:28:22;15.60;99.90
2729;DHT22;1372;47.956;7.830;2024-03-23T01:30:49;15.60;99.90
2729;DHT22;1372;47.956;7.830;2024-03-23T01:33:17;15.40;99.90
2729;DHT22;1372;47.956;7.830;2024-03-23T01:35:44;15.50;99.90
2729;DHT22;1372;47.956;7.830;2024-03-23T01:38:12;15.50;99.90
2729;DHT22;1372;47.956;7.830;2024-03-23T01:40:39;15.60;99.90
2729;DHT22;1372;47.956;7.830;2024-03-23T01:43:08;15.70;99.90
2729;DHT22;1372;47.956;7.830;2024-03-23T01:45:36;15.70;99.90
2729;DHT22;1372;47.956;7.830;2024-03-23T01:48:05;15.80;99.90
2729;DHT22;1372;47.956;7.830;2024-03-23T01:50:32;15.80;99.90
2729;DHT22;1372;47.956;7.830;2024-03-23T01:53:02;15.70;99.90
2729;DHT22;1372;47.956;7.830;2024-03-23T01:55:32;15.70;99.90
2729;DHT22;1372;47.956;7.830;2024-03-23T01:58:00;15.70;99.90
2729;DHT22;1372;47.956;7.830;2024-03-23T02:00:27;15.80;99.90
2729;DHT22;1372;47.956;7.830;2024-03-23T02:02:57;15.70;99.90
2729;DHT22;1372;47.956;7.830;2024-03-23T02:05:24;15.70;99.90
2729;DHT22;1372;47.956;7.830;2024-03-23T02:07:52;15.60;99.90
2729;DHT22;1372;47.956;7.830;2024-03-23T02:10:19;15.70;99.90
2729;DHT22;1372;47.956;7.830;2024-03-23T02:12:47;15.70;99.90
2729;DHT22;1372;47.956;7.830;2024-03-23T02:15:14;15.60;99.90
2729;DHT22;1372;47.956;7.830;2024-03-23T02:17:43;15.60;99.90
2729;DHT22;1372;47.956;7.830;2024-03-23T02:20:12;15.50;99.90
2729;DHT22;1372;47.956;7.830;2024-03-23T02:22:40;15.50;99.90
2729;DHT22;1372;47.956;7.830;2024-03-23T02:25:08;15.50;99.90
2729;DHT22;1372;47.956;7.830;2024-03-23T02:27:36;15.50;99.90
2729;DHT22;1372;47.956;7.830;2024-03-23T02:30:06;15.50;99.90
2729;DHT22;1372;47.956;7.830;2024-03-23T02:32:35;15.40;99.90
2729;DHT22;1372;47.956;7.830;2024-03-23T02:35:02;15.40;99.90
2729;DHT22;1372;47.956;7.830;2024-03-23T02:37:31;15.30;99.90
2729;DHT22;1372;47.956;7.830;2024-03-23T02:39:58;15.30;99.90
2729;DHT22;1372;47.956;7.830;2024-03-23T02:42:28;15.20;99.90
2729;DHT22;1372;47.956;7.830;2024-03-23T02:44:55;15.20;99.90
2729;DHT22;1372;47.956;7.830;2024-03-23T02:47:23;15.10;99.90
2729;DHT22;1372;47.956;7.830;2024-03-23T02:49:50;15.00;99.90
2729;DHT22;1372;47.956;7.830;2024-03-23T02:52:18;15.00;99.90
2729;DHT22;1372;47.956;7.830;2024-03-23T02:54:45;15.00;99.90
2729;DHT22;1372;47.956;7.830;2024-03-23T02:57:13;14.90;99.90
2729;DHT22;1372;47.956;7.830;2024-03-23T02:59:41;14.90;99.90
2729;DHT22;1372;47.956;7.830;2024-03-23T03:02:09;15.00;99.90
2729;DHT22;1372;47.956;7.830;2024-03-23T03:04:36;14.80;99.90
2729;DHT22;1372;47.956;7.830;2024-03-23T03:07:05;14.80;99.90
2729;DHT22;1372;47.956;7.830;2024-03-23T03:09:32;14.80;99.90
2729;DHT22;1372;47.956;7.830;2024-03-23T03:12:04;14.60;99.90
2729;DHT22;1372;47.956;7.830;2024-03-23T03:14:32;14.40;99.90
2729;DHT22;1372;47.956;7.830;2024-03-23T03:17:01;14.40;99.90
2729;DHT22;1372;47.956;7.830;2024-03-23T03:19:28;14.40;99.90
2729;DHT22;1372;47.956;7.830;2024-03-23T03:21:59;14.40;99.90
2729;DHT22;1372;47.956;7.830;2024-03-23T03:24:26;14.50;99.90
2729;DHT22;1372;47.956;7.830;2024-03-23T03:26:54;14.40;99.90
2729;DHT22;1372;47.956;7.830;2024-03-23T03:29:21;14.40;99.90
2729;DHT22;1372;47.956;7.830;2024-03-23T03:31:49;14.60;99.90
2729;DHT22;1372;47.956;7.830;2024-03-23T03:34:18;14.70;99.90
2729;DHT22;1372;47.956;7.830;2024-03-23T03:36:46;14.80;99.90
2729;DHT22;1372;47.956;7.830;2024-03-23T03:39:13;14.80;99.90
2729;DHT22;1372;47.956;7.830;2024-03-23T03:41:41;14.80;99.90
2729;DHT22;1372;47.956;7.830;2024-03-23T03:44:08;14.90;99.90
2729;DHT22;1372;47.956;7.830;2024-03-23T03:46:35;14.90;99.90
2729;DHT22;1372;47.956;7.830;2024-03-23T03:49:05;14.80;99.90
2729;DHT22;1372;47.956;7.830;2024-03-23T03:51:34;14.80;99.90
2729;DHT22;1372;47.956;7.830;2024-03-23T03:54:02;14.80;99.90
2729;DHT22;1372;47.956;7.830;2024-03-23T03:56:29;14.80;99.90
2729;DHT22;1372;47.956;7.830;2024-03-23T03:58:57;14.80;99.90
2729;DHT22;1372;47.956;7.830;2024-03-23T04:01:24;14.70;99.90
2729;DHT22;1372;47.956;7.830;2024-03-23T04:03:52;14.60;99.90
2729;DHT22;1372;47.956;7.830;2024-03-23T04:06:19;14.50;99.90
2729;DHT22;1372;47.956;7.830;2024-03-23T04:08:48;14.50;99.90
2729;DHT22;1372;47.956;7.830;2024-03-23T04:11:15;14.50;99.90
2729;DHT22;1372;47.956;7.830;2024-03-23T04:13:43;14.50;99.90
2729;DHT22;1372;47.956;7.830;2024-03-23T04:16:10;14.40;99.90
2729;DHT22;1372;47.956;7.830;2024-03-23T04:18:38;14.40;99.90
2729;DHT22;1372;47.956;7.830;2024-03-23T04:21:05;14.40;99.90
2729;DHT22;1372;47.956;7.830;2024-03-23T04:23:33;14.30;99.90
2729;DHT22;1372;47.956;7.830;2024-03-23T04:26:04;14.20;99.90
2729;DHT22;1372;47.956;7.830;2024-03-23T04:28:32;14.10;99.90
2729;DHT22;1372;47.956;7.830;2024-03-23T04:31:03;14.00;99.90
2729;DHT22;1372;47.956;7.830;2024-03-23T04:33:31;14.00;99.90
2729;DHT22;1372;47.956;7.830;2024-03-23T04:35:58;13.90;99.90
2729;DHT22;1372;47.956;7.830;2024-03-23T04:38:26;13.80;99.90
2729;DHT22;1372;47.956;7.830;2024-03-23T04:40:55;13.80;99.90
2729;DHT22;1372;47.956;7.830;2024-03-23T04:43:25;13.80;99.90
2729;DHT22;1372;47.956;7.830;2024-03-23T04:45:53;13.80;99.90
2729;DHT22;1372;47.956;7.830;2024-03-23T04:48:22;13.80;99.90
2729;DHT22;1372;47.956;7.830;2024-03-23T04:50:55;13.80;99.90
2729;DHT22;1372;47.956;7.830;2024-03-23T04:53:24;13.80;99.90
2729;DHT22;1372;47.956;7.830;2024-03-23T04:55:54;13.70;99.90
2729;DHT22;1372;47.956;7.830;2024-03-23T04:58:21;13.60;99.90
2729;DHT22;1372;47.956;7.830;2024-03-23T05:00:55;13.60;99.90
2729;DHT22;1372;47.956;7.830;2024-03-23T05:03:22;13.50;99.90
2729;DHT22;1372;47.956;7.830;2024-03-23T05:05:50;13.40;99.90
2729;DHT22;1372;47.956;7.830;2024-03-23T05:08:18;13.50;99.90
2729;DHT22;1372;47.956;7.830;2024-03-23T05:10:48;13.50;99.90
2729;DHT22;1372;47.956;7.830;2024-03-23T05:13:17;13.40;99.90
2729;DHT22;1372;47.956;7.830;2024-03-23T05:15:52;13.40;99.90
2729;DHT22;1372;47.956;7.830;2024-03-23T05:18:20;13.30;99.90
2729;DHT22;1372;47.956;7.830;2024-03-23T05:20:48;13.30;99.90
2729;DHT22;1372;47.956;7.830;2024-03-23T05:23:15;13.20;99.90
2729;DHT22;1372;47.956;7.830;2024-03-23T05:25:43;13.20;99.90
2729;DHT22;1372;47.956;7.830;2024-03-23T05:28:09;13.10;99.90
2729;DHT22;1372;47.956;7.830;2024-03-23T05:30:38;13.10;99.90
2729;DHT22;1372;47.956;7.830;2024-03-23T05:33:07;13.10;99.90
2729;DHT22;1372;47.956;7.830;2024-03-23T05:35:35;13.10;99.90
2729;DHT22;1372;47.956;7.830;2024-03-23T05:38:02;13.10;99.90
2729;DHT22;1372;47.956;7.830;2024-03-23T05:40:32;13.00;99.90
2729;DHT22;1372;47.956;7.830;2024-03-23T05:43:03;13.00;99.90
2729;DHT22;1372;47.956;7.830;2024-03-23T05:45:31;12.90;99.90
2729;DHT22;1372;47.956;7.830;2024-03-23T05:48:00;13.00;99.90
2729;DHT22;1372;47.956;7.830;2024-03-23T05:50:30;13.10;99.90
2729;DHT22;1372;47.956;7.830;2024-03-23T05:52:56;13.10;99.90
2729;DHT22;1372;47.956;7.830;2024-03-23T05:55:25;13.10;99.90
2729;DHT22;1372;47.956;7.830;2024-03-23T05:57:53;13.10;99.90
2729;DHT22;1372;47.956;7.830;2024-03-23T06:00:21;13.10;99.90
2729;DHT22;1372;47.956;7.830;2024-03-23T06:02:48;13.10;99.90
2729;DHT22;1372;47.956;7.830;2024-03-23T06:05:16;13.10;99.90
2729;DHT22;1372;47.956;7.830;2024-03-23T06:07:45;13.10;99.90
2729;DHT22;1372;47.956;7.830;2024-03-23T06:10:13;13.00;99.90
2729;DHT22;1372;47.956;7.830;2024-03-23T06:12:41;13.10;99.90
2729;DHT22;1372;47.956;7.830;2024-03-23T06:15:11;13.00;99.90
2729;DHT22;1372;47.956;7.830;2024-03-23T06:17:39;12.80;99.90
2729;DHT22;1372;47.956;7.830;2024-03-23T06:20:08;12.30;99.90
2729;DHT22;1372;47.956;7.830;2024-03-23T06:22:36;11.70;99.90
2729;DHT22;1372;47.956;7.830;2024-03-23T06:25:07;11.70;99.90
2729;DHT22;1372;47.956;7.830;2024-03-23T06:27:35;11.70;99.90
2729;DHT22;1372;47.956;7.830;2024-03-23T06:30:03;11.50;99.90
2729;DHT22;1372;47.956;7.830;2024-03-23T06:32:31;11.60;99.90
2729;DHT22;1372;47.956;7.830;2024-03-23T06:34:59;11.60;99.90
2729;DHT22;1372;47.956;7.830;2024-03-23T06:37:26;11.60;99.90
2729;DHT22;1372;47.956;7.830;2024-03-23T06:39:57;11.40;99.90
2729;DHT22;1372;47.956;7.830;2024-03-23T06:42:26;11.20;99.90
2729;DHT22;1372;47.956;7.830;2024-03-23T06:44:54;10.90;99.90
2729;DHT22;1372;47.956;7.830;2024-03-23T06:47:21;10.60;99.90
2729;DHT22;1372;47.956;7.830;2024-03-23T06:49:50;10.80;99.90
2729;DHT22;1372;47.956;7.830;2024-03-23T06:52:18;10.80;99.90
2729;DHT22;1372;47.956;7.830;2024-03-23T06:54:46;10.60;99.90
2729;DHT22;1372;47.956;7.830;2024-03-23T06:57:15;10.60;99.90
2729;DHT22;1372;47.956;7.830;2024-03-23T06:59:53;10.60;99.90
2729;DHT22;1372;47.956;7.830;2024-03-23T07:02:24;10.70;99.90
2729;DHT22;1372;47.956;7.830;2024-03-23T07:04:59;10.60;99.90
2729;DHT22;1372;47.956;7.830;2024-03-23T07:07:28;10.60;99.90
2729;DHT22;1372;47.956;7.830;2024-03-23T07:10:00;10.70;99.90
2729;DHT22;1372;47.956;7.830;2024-03-23T07:12:29;11.30;99.90
2729;DHT22;1372;47.956;7.830;2024-03-23T07:15:09;11.40;99.90
2729;DHT22;1372;47.956;7.830;2024-03-23T07:17:37;11.10;99.90
2729;DHT22;1372;47.956;7.830;2024-03-23T07:20:12;11.20;99.90
2729;DHT22;1372;47.956;7.830;2024-03-23T07:22:41;11.40;99.90
2729;DHT22;1372;47.956;7.830;2024-03-23T07:25:15;11.10;99.90
2729;DHT22;1372;47.956;7.830;2024-03-23T07:27:44;11.10;99.90
2729;DHT22;1372;47.956;7.830;2024-03-23T07:30:14;11.10;99.90
2729;DHT22;1372;47.956;7.830;2024-03-23T07:32:44;10.90;99.90
2729;DHT22;1372;47.956;7.830;2024-03-23T07:35:12;10.70;99.90
2729;DHT22;1372;47.956;7.830;2024-03-23T07:37:41;10.80;99.90
2729;DHT22;1372;47.956;7.830;2024-03-23T07:40:21;10.80;99.90
2729;DHT22;1372;47.956;7.830;2024-03-23T07:42:54;11.00;99.90
2729;DHT22;1372;47.956;7.830;2024-03-23T07:45:26;10.90;99.90
2729;DHT22;1372;47.956;7.830;2024-03-23T07:47:54;10.70;99.90
2729;DHT22;1372;47.956;7.830;2024-03-23T07:50:25;10.70;99.90
2729;DHT22;1372;47.956;7.830;2024-03-23T07:53:01;10.70;99.90
2729;DHT22;1372;47.956;7.830;2024-03-23T07:55:30;10.90;99.90
2729;DHT22;1372;47.956;7.830;2024-03-23T07:58:00;10.80;99.90
2729;DHT22;1372;47.956;7.830;2024-03-23T08:00:33;10.70;99.90
2729;DHT22;1372;47.956;7.830;2024-03-23T08:03:02;10.70;99.90
2729;DHT22;1372;47.956;7.830;2024-03-23T08:05:34;10.60;99.90
2729;DHT22;1372;47.956;7.830;2024-03-23T08:08:04;10.40;99.90
2729;DHT22;1372;47.956;7.830;2024-03-23T08:10:33;10.10;99.90
2729;DHT22;1372;47.956;7.830;2024-03-23T08:13:01;10.00;99.90
2729;DHT22;1372;47.956;7.830;2024-03-23T08:15:33;10.20;99.90
2729;DHT22;1372;47.956;7.830;2024-03-23T08:18:02;9.90;99.90
2729;DHT22;1372;47.956;7.830;2024-03-23T08:20:31;10.00;99.90
2729;DHT22;1372;47.956;7.830;2024-03-23T08:22:58;10.10;99.90
2729;DHT22;1372;47.956;7.830;2024-03-23T08:25:27;10.10;99.90
2729;DHT22;1372;47.956;7.830;2024-03-23T08:27:58;10.10;99.90
2729;DHT22;1372;47.956;7.830;2024-03-23T08:30:28;10.10;99.90
2729;DHT22;1372;47.956;7.830;2024-03-23T08:32:57;10.30;99.90
2729;DHT22;1372;47.956;7.830;2024-03-23T08:35:28;10.50;99.90
2729;DHT22;1372;47.956;7.830;2024-03-23T08:37:57;10.40;99.90
2729;DHT22;1372;47.956;7.830;2024-03-23T08:40:25;10.50;99.90
2729;DHT22;1372;47.956;7.830;2024-03-23T08:42:56;10.60;99.90
2729;DHT22;1372;47.956;7.830;2024-03-23T08:45:26;10.40;99.90
2729;DHT22;1372;47.956;7.830;2024-03-23T08:47:53;10.40;99.90
2729;DHT22;1372;47.956;7.830;2024-03-23T08:50:27;10.30;99.90
2729;DHT22;1372;47.956;7.830;2024-03-23T08:53:00;10.50;99.90
2729;DHT22;1372;47.956;7.830;2024-03-23T08:55:33;10.60;99.90
2729;DHT22;1372;47.956;7.830;2024-03-23T08:58:02;10.50;99.90
2729;DHT22;1372;47.956;7.830;2024-03-23T09:00:31;10.20;99.90
2729;DHT22;1372;47.956;7.830;2024-03-23T09:03:00;10.40;99.90
2729;DHT22;1372;47.956;7.830;2024-03-23T09:05:41;10.30;99.90
2729;DHT22;1372;47.956;7.830;2024-03-23T09:08:14;10.00;99.90
2729;DHT22;1372;47.956;7.830;2024-03-23T09:10:46;9.90;99.90
2729;DHT22;1372;47.956;7.830;2024-03-23T09:13:15;10.00;99.90
2729;DHT22;1372;47.956;7.830;2024-03-23T09:15:47;10.10;99.90
2729;DHT22;1372;47.956;7.830;2024-03-23T09:18:19;10.10;99.90
2729;DHT22;1372;47.956;7.830;2024-03-23T09:20:50;10.20;99.90
2729;DHT22;1372;47.956;7.830;2024-03-23T09:23:21;10.50;99.90
2729;DHT22;1372;47.956;7.830;2024-03-23T09:25:49;10.40;99.90
2729;DHT22;1372;47.956;7.830;2024-03-23T09:28:18;10.50;99.90
2729;DHT22;1372;47.956;7.830;2024-03-23T09:30:45;10.70;99.90
2729;DHT22;1372;47.956;7.830;2024-03-23T09:33:13;10.70;99.90
2729;DHT22;1372;47.956;7.830;2024-03-23T09:35:41;10.80;99.90
2729;DHT22;1372;47.956;7.830;2024-03-23T09:38:12;10.90;99.90
2729;DHT22;1372;47.956;7.830;2024-03-23T09:40:41;10.80;99.90
2729;DHT22;1372;47.956;7.830;2024-03-23T09:43:09;10.90;99.90
2729;DHT22;1372;47.956;7.830;2024-03-23T09:45:39;10.90;99.90
2729;DHT22;1372;47.956;7.830;2024-03-23T09:48:08;11.00;99.90
2729;DHT22;1372;47.956;7.830;2024-03-23T09:50:37;11.00;99.90
2729;DHT22;1372;47.956;7.830;2024-03-23T09:53:07;11.00;99.90
2729;DHT22;1372;47.956;7.830;2024-03-23T09:55:36;11.00;99.90
2729;DHT22;1372;47.956;7.830;2024-03-23T09:58:04;10.80;99.90
2729;DHT22;1372;47.956;7.830;2024-03-23T10:00:31;10.70;99.90
2729;DHT22;1372;47.956;7.830;2024-03-23T10:03:00;10.70;99.90
2729;DHT22;1372;47.956;7.830;2024-03-23T10:05:28;10.80;99.90
2729;DHT22;1372;47.956;7.830;2024-03-23T10:07:58;10.80;99.90
2729;DHT22;1372;47.956;7.830;2024-03-23T10:10:25;10.70;99.90
2729;DHT22;1372;47.956;7.830;2024-03-23T10:12:55;10.80;99.90
2729;DHT22;1372;47.956;7.830;2024-03-23T10:15:23;10.70;99.90
2729;DHT22;1372;47.956;7.830;2024-03-23T10:17:52;10.70;99.90
2729;DHT22;1372;47.956;7.830;2024-03-23T10:20:20;10.80;99.90
2729;DHT22;1372;47.956;7.830;2024-03-23T10:22:50;10.70;99.90
2729;DHT22;1372;47.956;7.830;2024-03-23T10:25:18;10.60;99.90
2729;DHT22;1372;47.956;7.830;2024-03-23T10:27:59;10.70;99.90
2729;DHT22;1372;47.956;7.830;2024-03-23T10:30:27;10.60;99.90
2729;DHT22;1372;47.956;7.830;2024-03-23T10:33:07;10.60;99.90
2729;DHT22;1372;47.956;7.830;2024-03-23T10:35:35;10.60;99.90
2729;DHT22;1372;47.956;7.830;2024-03-23T10:38:06;10.50;99.90
2729;DHT22;1372;47.956;7.830;2024-03-23T10:40:34;10.40;99.90
2729;DHT22;1372;47.956;7.830;2024-03-23T10:43:04;10.40;99.90
2729;DHT22;1372;47.956;7.830;2024-03-23T10:45:32;10.10;99.90
2729;DHT22;1372;47.956;7.830;2024-03-23T10:48:03;9.50;99.90
2729;DHT22;1372;47.956;7.830;2024-03-23T10:50:30;8.90;99.90
2729;DHT22;1372;47.956;7.830;2024-03-23T10:52:59;8.30;99.90
2729;DHT22;1372;47.956;7.830;2024-03-23T10:55:29;8.50;99.90
2729;DHT22;1372;47.956;7.830;2024-03-23T10:58:00;8.50;99.90
2729;DHT22;1372;47.956;7.830;2024-03-23T11:00:30;8.00;99.90
2729;DHT22;1372;47.956;7.830;2024-03-23T11:02:58;7.90;99.90
2729;DHT22;1372;47.956;7.830;2024-03-23T11:05:29;7.90;99.90
2729;DHT22;1372;47.956;7.830;2024-03-23T11:07:58;8.00;99.90
2729;DHT22;1372;47.956;7.830;2024-03-23T11:10:26;8.20;99.90
2729;DHT22;1372;47.956;7.830;2024-03-23T11:12:55;8.20;99.90
2729;DHT22;1372;47.956;7.830;2024-03-23T11:15:23;8.30;99.90
2729;DHT22;1372;47.956;7.830;2024-03-23T11:18:07;8.60;99.90
2729;DHT22;1372;47.956;7.830;2024-03-23T11:20:35;8.80;99.90
2729;DHT22;1372;47.956;7.830;2024-03-23T11:23:04;8.90;99.90
2729;DHT22;1372;47.956;7.830;2024-03-23T11:25:31;8.90;99.90
2729;DHT22;1372;47.956;7.830;2024-03-23T11:28:10;8.90;99.90
2729;DHT22;1372;47.956;7.830;2024-03-23T11:30:38;9.10;99.90
2729;DHT22;1372;47.956;7.830;2024-03-23T11:33:08;9.00;99.90
2729;DHT22;1372;47.956;7.830;2024-03-23T11:35:38;8.80;99.90
2729;DHT22;1372;47.956;7.830;2024-03-23T11:38:09;9.00;99.90
2729;DHT22;1372;47.956;7.830;2024-03-23T11:40:38;9.00;99.90
2729;DHT22;1372;47.956;7.830;2024-03-23T11:43:09;9.00;99.90
2729;DHT22;1372;47.956;7.830;2024-03-23T11:45:43;8.70;99.90
2729;DHT22;1372;47.956;7.830;2024-03-23T11:48:14;8.80;99.90
2729;DHT22;1372;47.956;7.830;2024-03-23T11:50:45;9.10;99.90
2729;DHT22;1372;47.956;7.830;2024-03-23T11:53:16;9.10;99.90
2729;DHT22;1372;47.956;7.830;2024-03-23T11:55:45;9.30;99.90
2729;DHT22;1372;47.956;7.830;2024-03-23T11:58:16;9.30;99.90
2729;DHT22;1372;47.956;7.830;2024-03-23T12:00:49;9.30;99.90
2729;DHT22;1372;47.956;7.830;2024-03-23T12:03:20;9.30;99.90
2729;DHT22;1372;47.956;7.830;2024-03-23T12:05:49;9.50;99.90
2729;DHT22;1372;47.956;7.830;2024-03-23T12:08:23;9.70;99.90
2729;DHT22;1372;47.956;7.830;2024-03-23T12:10:53;9.90;99.90
2729;DHT22;1372;47.956;7.830;2024-03-23T12:13:22;10.10;99.90
2729;DHT22;1372;47.956;7.830;2024-03-23T12:15:50;10.10;99.90
2729;DHT22;1372;47.956;7.830;2024-03-23T12:18:25;10.00;99.90
2729;DHT22;1372;47.956;7.830;2024-03-23T12:20:52;9.90;99.90
2729;DHT22;1372;47.956;7.830;2024-03-23T12:23:20;10.00;99.90
2729;DHT22;1372;47.956;7.830;2024-03-23T12:25:48;10.10;99.90
2729;DHT22;1372;47.956;7.830;2024-03-23T12:28:16;10.10;99.90
2729;DHT22;1372;47.956;7.830;2024-03-23T12:30:43;10.10;99.90
2729;DHT22;1372;47.956;7.830;2024-03-23T12:33:12;10.00;99.90
2729;DHT22;1372;47.956;7.830;2024-03-23T12:35:40;10.00;99.90
2729;DHT22;1372;47.956;7.830;2024-03-23T12:38:08;10.10;99.90
2729;DHT22;1372;47.956;7.830;2024-03-23T12:40:35;10.20;99.90
2729;DHT22;1372;47.956;7.830;2024-03-23T12:43:05;10.20;99.90
2729;DHT22;1372;47.956;7.830;2024-03-23T12:45:33;10.40;99.90
2729;DHT22;1372;47.956;7.830;2024-03-23T12:48:01;10.40;99.90
2729;DHT22;1372;47.956;7.830;2024-03-23T12:50:28;10.50;99.90
2729;DHT22;1372;47.956;7.830;2024-03-23T12:52:58;10.70;99.90
2729;DHT22;1372;47.956;7.830;2024-03-23T12:55:25;10.90;99.90
2729;DHT22;1372;47.956;7.830;2024-03-23T12:57:53;11.20;99.90
2729;DHT22;1372;47.956;7.830;2024-03-23T13:00:20;11.50;99.90
2729;DHT22;1372;47.956;7.830;2024-03-23T13:02:48;11.70;99.90
2729;DHT22;1372;47.956;7.830;2024-03-23T13:05:15;11.50;99.90
2729;DHT22;1372;47.956;7.830;2024-03-23T13:07:43;11.20;99.90
2729;DHT22;1372;47.956;7.830;2024-03-23T13:10:11;11.10;99.90
2729;DHT22;1372;47.956;7.830;2024-03-23T13:12:41;10.90;99.90
2729;DHT22;1372;47.956;7.830;2024-03-23T13:15:09;10.80;99.90
2729;DHT22;1372;47.956;7.830;2024-03-23T13:17:37;10.80;99.90
2729;DHT22;1372;47.956;7.830;2024-03-23T13:20:05;10.50;99.90
2729;DHT22;1372;47.956;7.830;2024-03-23T13:22:39;10.40;99.90
2729;DHT22;1372;47.956;7.830;2024-03-23T13:25:07;10.40;99.90
2729;DHT22;1372;47.956;7.830;2024-03-23T13:27:37;10.60;99.90
2729;DHT22;1372;47.956;7.830;2024-03-23T13:30:05;10.60;99.90
2729;DHT22;1372;47.956;7.830;2024-03-23T13:32:34;11.00;99.90
2729;DHT22;1372;47.956;7.830;2024-03-23T13:35:01;11.40;99.90
2729;DHT22;1372;47.956;7.830;2024-03-23T13:37:29;11.60;99.90
2729;DHT22;1372;47.956;7.830;2024-03-23T13:39:57;11.40;99.90
2729;DHT22;1372;47.956;7.830;2024-03-23T13:42:25;11.50;99.90
2729;DHT22;1372;47.956;7.830;2024-03-23T13:44:54;12.00;99.90
2729;DHT22;1372;47.956;7.830;2024-03-23T13:47:26;12.00;99.90
2729;DHT22;1372;47.956;7.830;2024-03-23T13:49:54;11.80;99.90
2729;DHT22;1372;47.956;7.830;2024-03-23T13:52:22;11.90;99.90
2729;DHT22;1372;47.956;7.830;2024-03-23T13:54:52;11.90;99.90
2729;DHT22;1372;47.956;7.830;2024-03-23T13:57:19;12.00;99.90
2729;DHT22;1372;47.956;7.830;2024-03-23T13:59:47;12.40;99.90
2729;DHT22;1372;47.956;7.830;2024-03-23T14:02:17;12.60;99.90
2729;DHT22;1372;47.956;7.830;2024-03-23T14:04:45;12.50;99.90
2729;DHT22;1372;47.956;7.830;2024-03-23T14:07:13;12.10;99.90
2729;DHT22;1372;47.956;7.830;2024-03-23T14:09:43;11.90;99.90
2729;DHT22;1372;47.956;7.830;2024-03-23T14:12:14;11.90;99.90
2729;DHT22;1372;47.956;7.830;2024-03-23T14:14:41;11.90;99.90
2729;DHT22;1372;47.956;7.830;2024-03-23T14:17:12;11.60;99.90
2729;DHT22;1372;47.956;7.830;2024-03-23T14:19:42;11.60;99.90
2729;DHT22;1372;47.956;7.830;2024-03-23T14:22:10;11.30;99.90
2729;DHT22;1372;47.956;7.830;2024-03-23T14:24:37;11.20;99.90
2729;DHT22;1372;47.956;7.830;2024-03-23T14:27:05;11.20;99.90
2729;DHT22;1372;47.956;7.830;2024-03-23T14:29:33;11.20;99.90
2729;DHT22;1372;47.956;7.830;2024-03-23T14:32:02;11.20;99.90
2729;DHT22;1372;47.956;7.830;2024-03-23T14:34:29;11.00;99.90
2729;DHT22;1372;47.956;7.830;2024-03-23T14:36:58;10.80;99.90
2729;DHT22;1372;47.956;7.830;2024-03-23T14:39:26;10.80;99.90
2729;DHT22;1372;47.956;7.830;2024-03-23T14:41:54;10.80;99.90
2729;DHT22;1372;47.956;7.830;2024-03-23T14:44:24;10.80;99.90
2729;DHT22;1372;47.956;7.830;2024-03-23T14:46:52;10.70;99.90
2729;DHT22;1372;47.956;7.830;2024-03-23T14:49:19;10.50;99.90
2729;DHT22;1372;47.956;7.830;2024-03-23T14:51:47;10.20;99.90
2729;DHT22;1372;47.956;7.830;2024-03-23T14:54:16;10.00;99.90
2729;DHT22;1372;47.956;7.830;2024-03-23T14:56:44;9.90;99.90
2729;DHT22;1372;47.956;7.830;2024-03-23T14:59:11;10.00;99.90
2729;DHT22;1372;47.956;7.830;2024-03-23T15:01:39;10.10;99.90
2729;DHT22;1372;47.956;7.830;2024-03-23T15:04:06;10.20;99.90
2729;DHT22;1372;47.956;7.830;2024-03-23T15:06:34;10.30;99.90
2729;DHT22;1372;47.956;7.830;2024-03-23T15:09:01;10.40;99.90
2729;DHT22;1372;47.956;7.830;2024-03-23T15:11:34;10.20;99.90
2729;DHT22;1372;47.956;7.830;2024-03-23T15:14:01;10.20;99.90
2729;DHT22;1372;47.956;7.830;2024-03-23T15:16:36;10.20;99.90
2729;DHT22;1372;47.956;7.830;2024-03-23T15:19:03;10.10;99.90
2729;DHT22;1372;47.956;7.830;2024-03-23T15:21:32;10.00;99.90
2729;DHT22;1372;47.956;7.830;2024-03-23T15:23:59;10.10;99.90
2729;DHT22;1372;47.956;7.830;2024-03-23T15:26:27;10.10;99.90
2729;DHT22;1372;47.956;7.830;2024-03-23T15:28:55;10.20;99.90
2729;DHT22;1372;47.956;7.830;2024-03-23T15:31:38;10.20;99.90
2729;DHT22;1372;47.956;7.830;2024-03-23T15:34:05;10.30;99.90
2729;DHT22;1372;47.956;7.830;2024-03-23T15:36:36;10.20;99.90
2729;DHT22;1372;47.956;7.830;2024-03-23T15:39:04;10.10;99.90
2729;DHT22;1372;47.956;7.830;2024-03-23T15:41:33;10.00;99.90
2729;DHT22;1372;47.956;7.830;2024-03-23T15:44:03;10.00;99.90
2729;DHT22;1372;47.956;7.830;2024-03-23T15:46:32;10.00;99.90
2729;DHT22;1372;47.956;7.830;2024-03-23T15:48:59;9.90;99.90
2729;DHT22;1372;47.956;7.830;2024-03-23T15:51:27;9.90;99.90
2729;DHT22;1372;47.956;7.830;2024-03-23T15:53:59;9.80;99.90
2729;DHT22;1372;47.956;7.830;2024-03-23T15:56:29;9.90;99.90
2729;DHT22;1372;47.956;7.830;2024-03-23T15:58:56;9.80;99.90
2729;DHT22;1372;47.956;7.830;2024-03-23T16:01:33;9.70;99.90
2729;DHT22;1372;47.956;7.830;2024-03-23T16:04:01;9.50;99.90
2729;DHT22;1372;47.956;7.830;2024-03-23T16:06:29;9.40;99.90
2729;DHT22;1372;47.956;7.830;2024-03-23T16:08:57;9.30;99.90
2729;DHT22;1372;47.956;7.830;2024-03-23T16:11:25;8.80;99.90
2729;DHT22;1372;47.956;7.830;2024-03-23T16:13:51;8.30;99.90
2729;DHT22;1372;47.956;7.830;2024-03-23T16:16:19;8.00;99.90
2729;DHT22;1372;47.956;7.830;2024-03-23T16:18:50;7.70;99.90
2729;DHT22;1372;47.956;7.830;2024-03-23T16:21:21;7.60;99.90
2729;DHT22;1372;47.956;7.830;2024-03-23T16:23:48;7.40;99.90
2729;DHT22;1372;47.956;7.830;2024-03-23T16:26:16;7.20;99.90
2729;DHT22;1372;47.956;7.830;2024-03-23T16:28:43;7.60;99.90
2729;DHT22;1372;47.956;7.830;2024-03-23T16:31:12;7.60;99.90
2729;DHT22;1372;47.956;7.830;2024-03-23T16:33:39;7.60;99.90
2729;DHT22;1372;47.956;7.830;2024-03-23T16:36:09;7.60;99.90
2729;DHT22;1372;47.956;7.830;2024-03-23T16:38:39;7.70;99.90
2729;DHT22;1372;47.956;7.830;2024-03-23T16:41:09;7.80;99.90
2729;DHT22;1372;47.956;7.830;2024-03-23T16:43:39;7.80;99.90
2729;DHT22;1372;47.956;7.830;2024-03-23T16:46:08;7.70;99.90
2729;DHT22;1372;47.956;7.830;2024-03-23T16:48:38;7.80;99.90
2729;DHT22;1372;47.956;7.830;2024-03-23T16:51:08;7.90;99.90
2729;DHT22;1372;47.956;7.830;2024-03-23T16:53:36;7.90;99.90
2729;DHT22;1372;47.956;7.830;2024-03-23T16:56:07;8.00;99.90
2729;DHT22;1372;47.956;7.830;2024-03-23T16:58:36;8.00;99.90
2729;DHT22;1372;47.956;7.830;2024-03-23T17:01:05;7.90;99.90
2729;DHT22;1372;47.956;7.830;2024-03-23T17:03:35;8.00;99.90
2729;DHT22;1372;47.956;7.830;2024-03-23T17:06:04;8.20;99.90
2729;DHT22;1372;47.956;7.830;2024-03-23T17:08:33;8.30;99.90